sensor_id;sensor_type;location;lat;lon;timestamp;pressure;altitude;pressure_sealevel;temperature
67509;BMP280;54354;44.724;11.284;2023-02-04T00:02:04;101976.84;;;12.29
67509;BMP280;54354;44.724;11.284;2023-02-04T00:04:30;101985.97;;;12.24
67509;BMP280;54354;44.724;11.284;2023-02-04T00:06:55;101985.22;;;12.16
67509;BMP280;54354;44.724;11.284;2023-02-04T00:09:21;101992.41;;;12.12
67509;BMP280;54354;44.724;11.284;2023-02-04T00:11:46;101978.78;;;12.14
67509;BMP280;54354;44.724;11.284;2023-02-04T00:14:12;101963.63;;;12.11
67509;BMP280;54354;44.724;11.284;2023-02-04T00:16:37;101963.63;;;12.07
67509;BMP280;54354;44.724;11.284;2023-02-04T00:19:03;101946.94;;;12.07
67509;BMP280;54354;44.724;11.284;2023-02-04T00:21:28;101937.84;;;12.04
67509;BMP280;54354;44.724;11.284;2023-02-04T00:23:54;101924.59;;;12.04
67509;BMP280;54354;44.724;11.284;2023-02-04T00:26:20;101928.34;;;12.03
67509;BMP280;54354;44.724;11.284;2023-02-04T00:28:45;101905.22;;;12.04
67509;BMP280;54354;44.724;11.284;2023-02-04T00:31:11;101904.81;;;12.05
67509;BMP280;54354;44.724;11.284;2023-02-04T00:33:38;101912.75;;;12.12
67509;BMP280;54354;44.724;11.284;2023-02-04T00:36:03;101908.19;;;12.24
67509;BMP280;54354;44.724;11.284;2023-02-04T00:38:29;101910.03;;;12.34
67509;BMP280;54354;44.724;11.284;2023-02-04T00:40:54;101914.94;;;12.46
67509;BMP280;54354;44.724;11.284;2023-02-04T00:43:20;101914.50;;;12.55
67509;BMP280;54354;44.724;11.284;2023-02-04T00:45:45;101908.00;;;12.63
67509;BMP280;54354;44.724;11.284;2023-02-04T00:48:11;101906.44;;;12.69
67509;BMP280;54354;44.724;11.284;2023-02-04T00:50:38;101907.56;;;12.71
67509;BMP280;54354;44.724;11.284;2023-02-04T00:53:05;101885.97;;;12.66
67509;BMP280;54354;44.724;11.284;2023-02-04T00:55:30;101894.00;;;12.59
67509;BMP280;54354;44.724;11.284;2023-02-04T00:57:57;101898.22;;;12.45
67509;BMP280;54354;44.724;11.284;2023-02-04T01:00:23;101899.78;;;12.36
67509;BMP280;54354;44.724;11.284;2023-02-04T01:02:48;101896.03;;;12.30
67509;BMP280;54354;44.724;11.284;2023-02-04T01:05:14;101909.69;;;12.28
67509;BMP280;54354;44.724;11.284;2023-02-04T01:07:39;101906.69;;;12.26
67509;BMP280;54354;44.724;11.284;2023-02-04T01:10:05;101913.13;;;12.25
67509;BMP280;54354;44.724;11.284;2023-02-04T01:12:31;101923.34;;;12.30
67509;BMP280;54354;44.724;11.284;2023-02-04T01:14:56;101918.78;;;12.38
67509;BMP280;54354;44.724;11.284;2023-02-04T01:17:23;101919.13;;;12.43
67509;BMP280;54354;44.724;11.284;2023-02-04T01:19:49;101917.97;;;12.52
67509;BMP280;54354;44.724;11.284;2023-02-04T01:22:14;101912.59;;;12.59
67509;BMP280;54354;44.724;11.284;2023-02-04T01:24:40;101919.41;;;12.67
67509;BMP280;54354;44.724;11.284;2023-02-04T01:27:24;101922.00;;;12.74
67509;BMP280;54354;44.724;11.284;2023-02-04T01:29:49;101916.28;;;12.79
67509;BMP280;54354;44.724;11.284;2023-02-04T01:32:15;101918.13;;;12.86
67509;BMP280;54354;44.724;11.284;2023-02-04T01:34:41;101905.19;;;12.91
67509;BMP280;54354;44.724;11.284;2023-02-04T01:37:06;101896.06;;;12.92
67509;BMP280;54354;44.724;11.284;2023-02-04T01:39:32;101905.19;;;12.91
67509;BMP280;54354;44.724;11.284;2023-02-04T01:41:58;101894.53;;;12.91
67509;BMP280;54354;44.724;11.284;2023-02-04T01:44:26;101888.53;;;12.87
67509;BMP280;54354;44.724;11.284;2023-02-04T01:46:52;101898.00;;;12.88
67509;BMP280;54354;44.724;11.284;2023-02-04T01:49:18;101901.03;;;12.90
67509;BMP280;54354;44.724;11.284;2023-02-04T01:51:44;101886.16;;;12.93
67509;BMP280;54354;44.724;11.284;2023-02-04T01:54:11;101888.88;;;12.86
67509;BMP280;54354;44.724;11.284;2023-02-04T01:56:39;101885.91;;;12.80
67509;BMP280;54354;44.724;11.284;2023-02-04T01:59:11;101869.59;;;12.75
67509;BMP280;54354;44.724;11.284;2023-02-04T02:04:08;101873.41;;;12.73
67509;BMP280;54354;44.724;11.284;2023-02-04T02:06:35;101876.50;;;12.65
67509;BMP280;54354;44.724;11.284;2023-02-04T02:09:02;101887.84;;;12.69
67509;BMP280;54354;44.724;11.284;2023-02-04T02:11:28;101882.13;;;12.74
67509;BMP280;54354;44.724;11.284;2023-02-04T02:13:55;101868.44;;;12.79
67509;BMP280;54354;44.724;11.284;2023-02-04T02:16:21;101871.41;;;12.88
67509;BMP280;54354;44.724;11.284;2023-02-04T02:18:47;101877.44;;;12.92
67509;BMP280;54354;44.724;11.284;2023-02-04T02:21:15;101876.34;;;12.86
67509;BMP280;54354;44.724;11.284;2023-02-04T02:23:47;101902.56;;;12.84
67509;BMP280;54354;44.724;11.284;2023-02-04T02:26:15;101870.66;;;12.84
67509;BMP280;54354;44.724;11.284;2023-02-04T02:28:41;101873.66;;;12.90
67509;BMP280;54354;44.724;11.284;2023-02-04T02:31:07;101884.28;;;12.93
67509;BMP280;54354;44.724;11.284;2023-02-04T02:33:33;101879.34;;;12.92
67509;BMP280;54354;44.724;11.284;2023-02-04T02:35:58;101869.09;;;12.94
67509;BMP280;54354;44.724;11.284;2023-02-04T02:38:24;101857.69;;;12.90
67509;BMP280;54354;44.724;11.284;2023-02-04T02:40:50;101866.09;;;12.88
67509;BMP280;54354;44.724;11.284;2023-02-04T02:43:20;101870.31;;;12.82
67509;BMP280;54354;44.724;11.284;2023-02-04T02:45:47;101868.41;;;12.83
67509;BMP280;54354;44.724;11.284;2023-02-04T02:48:13;101879.44;;;12.78
67509;BMP280;54354;44.724;11.284;2023-02-04T02:50:38;101865.72;;;12.83
67509;BMP280;54354;44.724;11.284;2023-02-04T02:53:09;101873.00;;;12.79
67509;BMP280;54354;44.724;11.284;2023-02-04T02:55:36;101865.72;;;12.86
67509;BMP280;54354;44.724;11.284;2023-02-04T02:58:03;101869.50;;;12.89
67509;BMP280;54354;44.724;11.284;2023-02-04T03:00:29;101867.22;;;12.91
67509;BMP280;54354;44.724;11.284;2023-02-04T03:03:06;101872.53;;;12.91
67509;BMP280;54354;44.724;11.284;2023-02-04T03:05:39;101854.59;;;12.98
67509;BMP280;54354;44.724;11.284;2023-02-04T03:08:07;101853.78;;;13.05
67509;BMP280;54354;44.724;11.284;2023-02-04T03:10:34;101852.69;;;13.03
67509;BMP280;54354;44.724;11.284;2023-02-04T03:13:00;101846.28;;;12.93
67509;BMP280;54354;44.724;11.284;2023-02-04T03:15:28;101853.25;;;12.76
67509;BMP280;54354;44.724;11.284;2023-02-04T03:17:53;101846.88;;;12.63
67509;BMP280;54354;44.724;11.284;2023-02-04T03:20:22;101842.78;;;12.51
67509;BMP280;54354;44.724;11.284;2023-02-04T03:22:49;101852.66;;;12.54
67509;BMP280;54354;44.724;11.284;2023-02-04T03:25:14;101846.53;;;12.57
67509;BMP280;54354;44.724;11.284;2023-02-04T03:27:40;101859.41;;;12.62
67509;BMP280;54354;44.724;11.284;2023-02-04T03:30:06;101852.56;;;12.68
67509;BMP280;54354;44.724;11.284;2023-02-04T03:32:33;101856.72;;;12.73
67509;BMP280;54354;44.724;11.284;2023-02-04T03:34:59;101840.38;;;12.75
67509;BMP280;54354;44.724;11.284;2023-02-04T03:37:24;101845.69;;;12.75
67509;BMP280;54354;44.724;11.284;2023-02-04T03:39:50;101842.66;;;12.72
67509;BMP280;54354;44.724;11.284;2023-02-04T03:42:15;101837.34;;;12.72
67509;BMP280;54354;44.724;11.284;2023-02-04T03:44:42;101826.72;;;12.72
67509;BMP280;54354;44.724;11.284;2023-02-04T03:47:07;101825.56;;;12.73
67509;BMP280;54354;44.724;11.284;2023-02-04T03:49:33;101820.59;;;12.79
67509;BMP280;54354;44.724;11.284;2023-02-04T03:52:00;101820.94;;;12.85
67509;BMP280;54354;44.724;11.284;2023-02-04T03:54:25;101819.72;;;12.89
67509;BMP280;54354;44.724;11.284;2023-02-04T03:56:50;101815.91;;;12.94
67509;BMP280;54354;44.724;11.284;2023-02-04T03:59:16;101810.94;;;12.99
67509;BMP280;54354;44.724;11.284;2023-02-04T04:01:41;101810.47;;;13.05
67509;BMP280;54354;44.724;11.284;2023-02-04T04:04:07;101802.47;;;13.12
67509;BMP280;54354;44.724;11.284;2023-02-04T04:06:32;101802.00;;;13.17
67509;BMP280;54354;44.724;11.284;2023-02-04T04:08:58;101781.84;;;13.19
67509;BMP280;54354;44.724;11.284;2023-02-04T04:11:23;101789.47;;;13.21
67509;BMP280;54354;44.724;11.284;2023-02-04T04:13:49;101782.59;;;13.23
67509;BMP280;54354;44.724;11.284;2023-02-04T04:16:14;101785.25;;;13.23
67509;BMP280;54354;44.724;11.284;2023-02-04T04:18:40;101784.06;;;13.28
67509;BMP280;54354;44.724;11.284;2023-02-04T04:21:05;101798.44;;;13.34
67509;BMP280;54354;44.724;11.284;2023-02-04T04:23:30;101794.59;;;13.39
67509;BMP280;54354;44.724;11.284;2023-02-04T04:25:56;101801.41;;;13.40
67509;BMP280;54354;44.724;11.284;2023-02-04T04:28:21;101797.25;;;13.39
67509;BMP280;54354;44.724;11.284;2023-02-04T04:30:47;101807.94;;;13.32
67509;BMP280;54354;44.724;11.284;2023-02-04T04:33:12;101811.81;;;13.27
67509;BMP280;54354;44.724;11.284;2023-02-04T04:35:38;101806.88;;;13.25
67509;BMP280;54354;44.724;11.284;2023-02-04T04:38:03;101811.81;;;13.27
67509;BMP280;54354;44.724;11.284;2023-02-04T04:40:29;101803.84;;;13.27
67509;BMP280;54354;44.724;11.284;2023-02-04T04:42:54;101816.38;;;13.27
67509;BMP280;54354;44.724;11.284;2023-02-04T04:45:20;101819.47;;;13.21
67509;BMP280;54354;44.724;11.284;2023-02-04T04:47:45;101830.56;;;13.13
67509;BMP280;54354;44.724;11.284;2023-02-04T04:50:11;101830.25;;;13.04
67509;BMP280;54354;44.724;11.284;2023-02-04T04:52:36;101825.34;;;12.98
67509;BMP280;54354;44.724;11.284;2023-02-04T04:55:02;101826.56;;;12.94
67509;BMP280;54354;44.724;11.284;2023-02-04T04:57:28;101834.91;;;12.92
67509;BMP280;54354;44.724;11.284;2023-02-04T04:59:53;101835.31;;;12.91
67509;BMP280;54354;44.724;11.284;2023-02-04T05:02:19;101841.75;;;12.90
67509;BMP280;54354;44.724;11.284;2023-02-04T05:04:44;101857.31;;;12.95
67509;BMP280;54354;44.724;11.284;2023-02-04T05:07:09;101853.91;;;12.94
67509;BMP280;54354;44.724;11.284;2023-02-04T05:09:35;101841.41;;;12.88
67509;BMP280;54354;44.724;11.284;2023-02-04T05:12:00;101836.91;;;12.78
67509;BMP280;54354;44.724;11.284;2023-02-04T05:14:27;101832.81;;;12.69
67509;BMP280;54354;44.724;11.284;2023-02-04T05:16:52;101832.06;;;12.65
67509;BMP280;54354;44.724;11.284;2023-02-04T05:19:18;101841.94;;;12.65
67509;BMP280;54354;44.724;11.284;2023-02-04T05:21:43;101819.94;;;12.64
67509;BMP280;54354;44.724;11.284;2023-02-04T05:24:09;101855.59;;;12.63
67509;BMP280;54354;44.724;11.284;2023-02-04T05:26:34;101824.88;;;12.62
67509;BMP280;54354;44.724;11.284;2023-02-04T05:29:00;101844.22;;;12.63
67509;BMP280;54354;44.724;11.284;2023-02-04T05:31:25;101828.25;;;12.66
67509;BMP280;54354;44.724;11.284;2023-02-04T05:33:51;101847.59;;;12.70
67509;BMP280;54354;44.724;11.284;2023-02-04T05:36:16;101847.97;;;12.72
67509;BMP280;54354;44.724;11.284;2023-02-04T05:38:44;101857.06;;;12.75
67509;BMP280;54354;44.724;11.284;2023-02-04T05:41:10;101843.38;;;12.77
67509;BMP280;54354;44.724;11.284;2023-02-04T05:43:36;101856.28;;;12.82
67509;BMP280;54354;44.724;11.284;2023-02-04T05:46:01;101835.00;;;12.78
67509;BMP280;54354;44.724;11.284;2023-02-04T05:48:27;101849.91;;;12.68
67509;BMP280;54354;44.724;11.284;2023-02-04T05:50:52;101864.72;;;12.62
67509;BMP280;54354;44.724;11.284;2023-02-04T05:53:18;101868.94;;;12.56
67509;BMP280;54354;44.724;11.284;2023-02-04T05:55:43;101860.97;;;12.56
67509;BMP280;54354;44.724;11.284;2023-02-04T05:58:09;101869.66;;;12.64
67509;BMP280;54354;44.724;11.284;2023-02-04T06:00:34;101864.69;;;12.69
67509;BMP280;54354;44.724;11.284;2023-02-04T06:03:00;101868.09;;;12.73
67509;BMP280;54354;44.724;11.284;2023-02-04T06:05:25;101874.53;;;12.69
67509;BMP280;54354;44.724;11.284;2023-02-04T06:07:51;101866.56;;;12.69
67509;BMP280;54354;44.724;11.284;2023-02-04T06:10:16;101864.69;;;12.69
67509;BMP280;54354;44.724;11.284;2023-02-04T06:12:42;101874.94;;;12.71
67509;BMP280;54354;44.724;11.284;2023-02-04T06:15:07;101868.47;;;12.72
67509;BMP280;54354;44.724;11.284;2023-02-04T06:17:34;101860.88;;;12.70
67509;BMP280;54354;44.724;11.284;2023-02-04T06:19:59;101860.13;;;12.70
67509;BMP280;54354;44.724;11.284;2023-02-04T06:22:25;101859.03;;;12.67
67509;BMP280;54354;44.724;11.284;2023-02-04T06:24:51;101867.38;;;12.62
67509;BMP280;54354;44.724;11.284;2023-02-04T06:27:16;101862.50;;;12.54
67509;BMP280;54354;44.724;11.284;2023-02-04T06:29:54;101842.88;;;12.33
67509;BMP280;54354;44.724;11.284;2023-02-04T06:32:20;101850.16;;;12.18
67509;BMP280;54354;44.724;11.284;2023-02-04T06:34:46;101848.69;;;12.07
67509;BMP280;54354;44.724;11.284;2023-02-04T06:37:12;101854.78;;;12.04
67509;BMP280;54354;44.724;11.284;2023-02-04T06:39:38;101865.00;;;12.05
67509;BMP280;54354;44.724;11.284;2023-02-04T06:42:04;101862.31;;;12.12
67509;BMP280;54354;44.724;11.284;2023-02-04T06:44:29;101866.88;;;12.19
67509;BMP280;54354;44.724;11.284;2023-02-04T06:46:55;101875.19;;;12.21
67509;BMP280;54354;44.724;11.284;2023-02-04T06:49:20;101888.84;;;12.23
67509;BMP280;54354;44.724;11.284;2023-02-04T06:51:46;101885.44;;;12.26
67509;BMP280;54354;44.724;11.284;2023-02-04T06:54:13;101913.09;;;12.32
67509;BMP280;54354;44.724;11.284;2023-02-04T06:56:38;101929.38;;;12.38
67509;BMP280;54354;44.724;11.284;2023-02-04T06:59:04;101889.91;;;12.43
67509;BMP280;54354;44.724;11.284;2023-02-04T07:01:30;101907.75;;;12.43
67509;BMP280;54354;44.724;11.284;2023-02-04T07:03:55;101925.19;;;12.44
67509;BMP280;54354;44.724;11.284;2023-02-04T07:06:21;101909.63;;;12.42
67509;BMP280;54354;44.724;11.284;2023-02-04T07:08:46;101922.13;;;12.45
67509;BMP280;54354;44.724;11.284;2023-02-04T07:11:14;101938.84;;;12.46
67509;BMP280;54354;44.724;11.284;2023-02-04T07:13:39;101934.66;;;12.52
67509;BMP280;54354;44.724;11.284;2023-02-04T07:16:05;101932.34;;;12.61
67509;BMP280;54354;44.724;11.284;2023-02-04T07:18:31;101950.91;;;12.65
67509;BMP280;54354;44.724;11.284;2023-02-04T07:20:57;101946.69;;;12.71
67509;BMP280;54354;44.724;11.284;2023-02-04T07:23:22;101957.28;;;12.78
67509;BMP280;54354;44.724;11.284;2023-02-04T07:25:50;101959.19;;;12.78
67509;BMP280;54354;44.724;11.284;2023-02-04T07:28:21;101953.91;;;12.74
67509;BMP280;54354;44.724;11.284;2023-02-04T07:30:47;101986.50;;;12.78
67509;BMP280;54354;44.724;11.284;2023-02-04T07:33:12;101984.25;;;12.77
67509;BMP280;54354;44.724;11.284;2023-02-04T07:35:38;101984.66;;;12.75
67509;BMP280;54354;44.724;11.284;2023-02-04T07:38:04;101974.41;;;12.73
67509;BMP280;54354;44.724;11.284;2023-02-04T07:40:30;101986.16;;;12.69
67509;BMP280;54354;44.724;11.284;2023-02-04T07:42:55;101999.09;;;12.74
67509;BMP280;54354;44.724;11.284;2023-02-04T07:45:22;101990.72;;;12.76
67509;BMP280;54354;44.724;11.284;2023-02-04T07:47:47;101977.03;;;12.77
67509;BMP280;54354;44.724;11.284;2023-02-04T07:50:13;101983.09;;;12.78
67509;BMP280;54354;44.724;11.284;2023-02-04T07:52:39;101996.03;;;12.79
67509;BMP280;54354;44.724;11.284;2023-02-04T07:55:05;101980.06;;;12.79
67509;BMP280;54354;44.724;11.284;2023-02-04T07:57:31;101975.47;;;12.83
67509;BMP280;54354;44.724;11.284;2023-02-04T07:59:56;101998.25;;;12.84
67509;BMP280;54354;44.724;11.284;2023-02-04T08:02:23;102002.06;;;12.83
67509;BMP280;54354;44.724;11.284;2023-02-04T08:04:49;102018.00;;;12.83
67509;BMP280;54354;44.724;11.284;2023-02-04T08:07:14;102008.53;;;12.86
67509;BMP280;54354;44.724;11.284;2023-02-04T08:09:40;102012.31;;;12.88
67509;BMP280;54354;44.724;11.284;2023-02-04T08:12:06;101997.09;;;12.92
67509;BMP280;54354;44.724;11.284;2023-02-04T08:14:31;102006.56;;;12.97
67509;BMP280;54354;44.724;11.284;2023-02-04T08:16:57;102022.09;;;13.02
67509;BMP280;54354;44.724;11.284;2023-02-04T08:19:22;101996.97;;;13.10
67509;BMP280;54354;44.724;11.284;2023-02-04T08:21:48;102009.09;;;13.18
67509;BMP280;54354;44.724;11.284;2023-02-04T08:24:14;101994.22;;;13.24
67509;BMP280;54354;44.724;11.284;2023-02-04T08:26:41;101999.88;;;13.34
67509;BMP280;54354;44.724;11.284;2023-02-04T08:29:07;101996.34;;;13.44
67509;BMP280;54354;44.724;11.284;2023-02-04T08:31:34;101997.47;;;13.54
67509;BMP280;54354;44.724;11.284;2023-02-04T08:34:02;101988.59;;;13.64
67509;BMP280;54354;44.724;11.284;2023-02-04T08:36:27;101979.41;;;13.72
67509;BMP280;54354;44.724;11.284;2023-02-04T08:38:53;102001.00;;;13.81
67509;BMP280;54354;44.724;11.284;2023-02-04T08:41:18;101995.59;;;13.88
67509;BMP280;54354;44.724;11.284;2023-02-04T08:43:43;101985.28;;;13.94
67509;BMP280;54354;44.724;11.284;2023-02-04T08:46:09;101989.75;;;14.00
67509;BMP280;54354;44.724;11.284;2023-02-04T08:48:34;101996.97;;;14.03
67509;BMP280;54354;44.724;11.284;2023-02-04T08:51:00;101992.38;;;14.08
67509;BMP280;54354;44.724;11.284;2023-02-04T08:53:25;102018.94;;;14.15
67509;BMP280;54354;44.724;11.284;2023-02-04T08:55:51;102012.41;;;14.19
67509;BMP280;54354;44.724;11.284;2023-02-04T08:58:16;102016.56;;;14.24
67509;BMP280;54354;44.724;11.284;2023-02-04T09:00:42;102017.63;;;14.30
67509;BMP280;54354;44.724;11.284;2023-02-04T09:03:07;102031.69;;;14.34
67509;BMP280;54354;44.724;11.284;2023-02-04T09:05:33;102044.19;;;14.37
67509;BMP280;54354;44.724;11.284;2023-02-04T09:07:58;102029.28;;;14.43
67509;BMP280;54354;44.724;11.284;2023-02-04T09:10:24;102035.66;;;14.53
67509;BMP280;54354;44.724;11.284;2023-02-04T09:12:49;102046.22;;;14.60
67509;BMP280;54354;44.724;11.284;2023-02-04T09:15:23;102038.56;;;14.62
67509;BMP280;54354;44.724;11.284;2023-02-04T09:17:50;102043.91;;;14.62
67509;BMP280;54354;44.724;11.284;2023-02-04T09:20:15;102056.44;;;14.65
67509;BMP280;54354;44.724;11.284;2023-02-04T09:22:41;102068.59;;;14.70
67509;BMP280;54354;44.724;11.284;2023-02-04T09:25:07;102063.59;;;14.72
67509;BMP280;54354;44.724;11.284;2023-02-04T09:27:32;102047.50;;;14.79
67509;BMP280;54354;44.724;11.284;2023-02-04T09:29:58;102058.44;;;14.88
67509;BMP280;54354;44.724;11.284;2023-02-04T09:32:24;102059.88;;;14.93
67509;BMP280;54354;44.724;11.284;2023-02-04T09:34:49;102052.19;;;14.98
67509;BMP280;54354;44.724;11.284;2023-02-04T09:37:15;102059.34;;;15.05
67509;BMP280;54354;44.724;11.284;2023-02-04T09:39:40;102048.63;;;15.08
67509;BMP280;54354;44.724;11.284;2023-02-04T09:42:07;102046.59;;;15.16
67509;BMP280;54354;44.724;11.284;2023-02-04T09:44:33;102042.72;;;15.21
67509;BMP280;54354;44.724;11.284;2023-02-04T09:46:59;102041.94;;;15.24
67509;BMP280;54354;44.724;11.284;2023-02-04T09:49:25;102040.72;;;15.28
67509;BMP280;54354;44.724;11.284;2023-02-04T09:51:53;102041.41;;;15.32
67509;BMP280;54354;44.724;11.284;2023-02-04T09:54:20;102048.16;;;15.40
67509;BMP280;54354;44.724;11.284;2023-02-04T09:56:46;102051.44;;;15.48
67509;BMP280;54354;44.724;11.284;2023-02-04T09:59:22;102059.06;;;15.50
67509;BMP280;54354;44.724;11.284;2023-02-04T10:02:03;102050.13;;;15.60
67509;BMP280;54354;44.724;11.284;2023-02-04T10:04:32;102044.31;;;15.65
67509;BMP280;54354;44.724;11.284;2023-02-04T10:06:57;102051.44;;;15.72
67509;BMP280;54354;44.724;11.284;2023-02-04T10:09:23;102042.19;;;15.80
67509;BMP280;54354;44.724;11.284;2023-02-04T10:11:49;102037.09;;;15.85
67509;BMP280;54354;44.724;11.284;2023-02-04T10:14:17;102036.75;;;15.83
67509;BMP280;54354;44.724;11.284;2023-02-04T10:16:48;102025.59;;;15.88
67509;BMP280;54354;44.724;11.284;2023-02-04T10:19:15;102028.41;;;16.01
67509;BMP280;54354;44.724;11.284;2023-02-04T10:21:42;102026.03;;;16.07
67509;BMP280;54354;44.724;11.284;2023-02-04T10:24:19;102038.06;;;16.15
67509;BMP280;54354;44.724;11.284;2023-02-04T10:26:46;102028.00;;;16.23
67509;BMP280;54354;44.724;11.284;2023-02-04T10:29:14;102011.22;;;16.22
67509;BMP280;54354;44.724;11.284;2023-02-04T10:31:45;101996.59;;;16.27
67509;BMP280;54354;44.724;11.284;2023-02-04T10:36:42;101988.75;;;16.36
67509;BMP280;54354;44.724;11.284;2023-02-04T10:39:12;101993.63;;;16.41
67509;BMP280;54354;44.724;11.284;2023-02-04T10:41:53;101997.66;;;16.49
67509;BMP280;54354;44.724;11.284;2023-02-04T10:44:30;102008.94;;;16.57
67509;BMP280;54354;44.724;11.284;2023-02-04T10:47:04;102010.41;;;16.61
67509;BMP280;54354;44.724;11.284;2023-02-04T10:49:31;101992.28;;;16.69
67509;BMP280;54354;44.724;11.284;2023-02-04T10:51:57;101995.53;;;16.76
67509;BMP280;54354;44.724;11.284;2023-02-04T10:54:34;101991.91;;;16.83
67509;BMP280;54354;44.724;11.284;2023-02-04T10:57:19;101996.97;;;16.97
67509;BMP280;54354;44.724;11.284;2023-02-04T10:59:47;102001.88;;;16.99
67509;BMP280;54354;44.724;11.284;2023-02-04T11:05:02;101991.38;;;17.08
67509;BMP280;54354;44.724;11.284;2023-02-04T11:07:28;102006.84;;;17.17
67509;BMP280;54354;44.724;11.284;2023-02-04T11:09:55;102003.22;;;17.23
67509;BMP280;54354;44.724;11.284;2023-02-04T11:12:35;101990.91;;;17.26
67509;BMP280;54354;44.724;11.284;2023-02-04T11:15:01;101994.72;;;17.41
67509;BMP280;54354;44.724;11.284;2023-02-04T11:17:32;101997.41;;;17.41
67509;BMP280;54354;44.724;11.284;2023-02-04T11:19:58;101984.91;;;17.51
67509;BMP280;54354;44.724;11.284;2023-02-04T11:22:45;101980.31;;;17.64
67509;BMP280;54354;44.724;11.284;2023-02-04T11:25:31;101970.63;;;17.70
67509;BMP280;54354;44.724;11.284;2023-02-04T11:27:58;101967.75;;;17.77
67509;BMP280;54354;44.724;11.284;2023-02-04T11:30:30;101965.47;;;17.76
67509;BMP280;54354;44.724;11.284;2023-02-04T11:33:02;101971.38;;;17.83
67509;BMP280;54354;44.724;11.284;2023-02-04T11:35:28;101977.63;;;17.93
67509;BMP280;54354;44.724;11.284;2023-02-04T11:37:55;101968.34;;;17.98
67509;BMP280;54354;44.724;11.284;2023-02-04T11:40:33;101970.16;;;18.01
67509;BMP280;54354;44.724;11.284;2023-02-04T11:43:08;101973.28;;;18.12
67509;BMP280;54354;44.724;11.284;2023-02-04T11:45:36;101976.06;;;18.21
67509;BMP280;54354;44.724;11.284;2023-02-04T11:48:09;101974.44;;;18.24
67509;BMP280;54354;44.724;11.284;2023-02-04T11:50:35;101971.88;;;18.33
67509;BMP280;54354;44.724;11.284;2023-02-04T11:53:03;101962.66;;;18.34
67509;BMP280;54354;44.724;11.284;2023-02-04T11:55:35;101951.94;;;18.34
67509;BMP280;54354;44.724;11.284;2023-02-04T11:58:01;101967.78;;;18.41
67509;BMP280;54354;44.724;11.284;2023-02-04T12:00:31;101955.56;;;18.40
67509;BMP280;54354;44.724;11.284;2023-02-04T12:03:00;101953.84;;;18.46
67509;BMP280;54354;44.724;11.284;2023-02-04T12:05:39;101952.56;;;18.51
67509;BMP280;54354;44.724;11.284;2023-02-04T12:08:10;101965.97;;;18.51
67509;BMP280;54354;44.724;11.284;2023-02-04T12:10:36;101969.59;;;18.57
67509;BMP280;54354;44.724;11.284;2023-02-04T12:13:11;101958.00;;;18.60
67509;BMP280;54354;44.724;11.284;2023-02-04T12:15:37;101953.59;;;18.66
67509;BMP280;54354;44.724;11.284;2023-02-04T12:18:10;101947.47;;;18.65
67509;BMP280;54354;44.724;11.284;2023-02-04T12:20:40;101940.41;;;18.71
67509;BMP280;54354;44.724;11.284;2023-02-04T12:23:06;101944.44;;;18.76
67509;BMP280;54354;44.724;11.284;2023-02-04T12:25:33;101950.16;;;18.78
67509;BMP280;54354;44.724;11.284;2023-02-04T12:27:58;101950.03;;;18.82
67509;BMP280;54354;44.724;11.284;2023-02-04T12:30:25;101941.84;;;18.85
67509;BMP280;54354;44.724;11.284;2023-02-04T12:32:51;101941.31;;;18.90
67509;BMP280;54354;44.724;11.284;2023-02-04T12:35:16;101948.03;;;18.95
67509;BMP280;54354;44.724;11.284;2023-02-04T12:37:42;101951.97;;;19.03
67509;BMP280;54354;44.724;11.284;2023-02-04T12:40:12;101949.63;;;19.05
67509;BMP280;54354;44.724;11.284;2023-02-04T12:42:39;101950.56;;;19.11
67509;BMP280;54354;44.724;11.284;2023-02-04T12:45:04;101956.88;;;19.17
67509;BMP280;54354;44.724;11.284;2023-02-04T12:47:30;101957.94;;;19.20
67509;BMP280;54354;44.724;11.284;2023-02-04T12:49:55;101955.13;;;19.23
67509;BMP280;54354;44.724;11.284;2023-02-04T12:52:21;101954.25;;;19.26
67509;BMP280;54354;44.724;11.284;2023-02-04T12:54:47;101949.94;;;19.29
67509;BMP280;54354;44.724;11.284;2023-02-04T12:57:13;101950.56;;;19.33
67509;BMP280;54354;44.724;11.284;2023-02-04T12:59:46;101949.69;;;19.36
67509;BMP280;54354;44.724;11.284;2023-02-04T13:02:14;101936.13;;;19.40
67509;BMP280;54354;44.724;11.284;2023-02-04T13:04:40;101938.81;;;19.40
67509;BMP280;54354;44.724;11.284;2023-02-04T13:07:07;101932.28;;;19.41
67509;BMP280;54354;44.724;11.284;2023-02-04T13:09:34;101930.19;;;19.45
67509;BMP280;54354;44.724;11.284;2023-02-04T13:11:59;101932.47;;;19.46
67509;BMP280;54354;44.724;11.284;2023-02-04T13:14:25;101942.59;;;19.51
67509;BMP280;54354;44.724;11.284;2023-02-04T13:16:50;101944.13;;;19.52
67509;BMP280;54354;44.724;11.284;2023-02-04T13:19:16;101939.06;;;19.54
67509;BMP280;54354;44.724;11.284;2023-02-04T13:21:41;101935.94;;;19.56
67509;BMP280;54354;44.724;11.284;2023-02-04T13:24:08;101939.69;;;19.59
67509;BMP280;54354;44.724;11.284;2023-02-04T13:26:33;101946.13;;;19.61
67509;BMP280;54354;44.724;11.284;2023-02-04T13:28:59;101944.78;;;19.66
67509;BMP280;54354;44.724;11.284;2023-02-04T13:31:24;101947.31;;;19.69
67509;BMP280;54354;44.724;11.284;2023-02-04T13:33:50;101949.16;;;19.72
67509;BMP280;54354;44.724;11.284;2023-02-04T13:36:15;101940.19;;;19.75
67509;BMP280;54354;44.724;11.284;2023-02-04T13:38:41;101962.34;;;19.79
67509;BMP280;54354;44.724;11.284;2023-02-04T13:41:06;101961.88;;;19.81
67509;BMP280;54354;44.724;11.284;2023-02-04T13:43:32;101961.44;;;19.82
67509;BMP280;54354;44.724;11.284;2023-02-04T13:45:57;101961.31;;;19.86
67509;BMP280;54354;44.724;11.284;2023-02-04T13:48:23;101972.38;;;19.88
67509;BMP280;54354;44.724;11.284;2023-02-04T13:50:48;101986.56;;;19.89